AK00 weather

Public forecast

Using degrees Fahrenheit for public forecast. Weather courtesy of forecast.io.

Closest aviation weather report (METAR) to Anchor River Airpark

Report is more than 2 hours old.

Closest report is Homer Airport, 14.8 nm (27.4 km) SE. Retrieved 2020/08/14 04:52 UTC (3 hours ago):

PAHO 140452Z 24008KT 10SM SCT080 14/11 A2999

Closest aviation forecast (TAF) to Anchor River Airpark

Closest forecast is Homer Airport, 14.8 nm (27.4 km) SE. Retrieved 2020/08/14 06:22 UTC (2 hours ago):

TAF PAHO 140520Z 1406/1506 26008KT P6SM FEW070 FM141200 VRB03KT 1 1/2SM BR SCT005 FM141700 VRB03KT P6SM SKC FM142100 25010KT P6SM SKC